createdAt,value
2023-01-18T00:00:40.526Z,13.48
2023-01-18T00:03:11.808Z,18.77
2023-01-18T00:05:42.853Z,15.38
2023-01-18T00:08:16.353Z,16.10
2023-01-18T00:10:46.179Z,18.73
2023-01-18T00:13:12.940Z,15.82
2023-01-18T00:15:39.606Z,21.80
2023-01-18T00:18:06.519Z,15.43
2023-01-18T00:20:33.184Z,19.08
2023-01-18T00:23:01.753Z,16.20
2023-01-18T00:25:29.220Z,21.80
2023-01-18T00:27:56.516Z,20.63
2023-01-18T00:30:26.177Z,16.95
2023-01-18T00:32:55.754Z,17.25
2023-01-18T00:35:25.550Z,18.13
2023-01-18T00:37:53.576Z,16.63
2023-01-18T00:40:21.436Z,23.77
2023-01-18T00:43:06.584Z,18.75
2023-01-18T00:45:33.311Z,17.83
2023-01-18T00:47:59.982Z,21.23
2023-01-18T00:50:26.717Z,18.33
2023-01-18T00:52:57.129Z,17.25
2023-01-18T00:55:24.432Z,20.63
2023-01-18T00:57:51.425Z,20.08
2023-01-18T01:00:23.564Z,22.63
2023-01-18T01:02:51.625Z,18.50
2023-01-18T01:05:42.456Z,17.88
2023-01-18T01:08:17.288Z,17.95
2023-01-18T01:10:46.378Z,20.10
2023-01-18T01:13:35.838Z,24.63
2023-01-18T01:16:29.936Z,23.17
2023-01-18T01:19:15.898Z,18.52
2023-01-18T01:22:01.386Z,19.70
2023-01-18T01:24:46.449Z,20.90
2023-01-18T01:27:14.025Z,16.98
2023-01-18T01:29:40.778Z,22.42
2023-01-18T01:32:07.869Z,19.88
2023-01-18T01:34:34.851Z,22.50
2023-01-18T01:37:01.876Z,20.98
2023-01-18T01:39:31.362Z,20.63
2023-01-18T01:41:58.146Z,24.35
2023-01-18T01:44:24.752Z,23.73
2023-01-18T01:46:56.970Z,23.45
2023-01-18T01:49:39.954Z,24.40
2023-01-18T01:52:10.885Z,25.25
2023-01-18T01:54:55.718Z,23.50
2023-01-18T01:57:27.072Z,21.65
2023-01-18T02:00:08.214Z,20.05
2023-01-18T02:02:35.605Z,25.58
2023-01-18T02:05:05.669Z,24.98
2023-01-18T02:07:33.281Z,19.55
2023-01-18T02:10:01.669Z,15.95
2023-01-18T02:12:31.872Z,21.80
2023-01-18T02:14:59.407Z,19.63
2023-01-18T02:18:01.072Z,19.23
2023-01-18T02:20:55.489Z,21.40
2023-01-18T02:23:34.795Z,17.00
2023-01-18T02:26:38.173Z,18.77
2023-01-18T02:29:14.683Z,15.05
2023-01-18T02:32:15.278Z,16.38
2023-01-18T02:34:48.927Z,13.05
2023-01-18T02:37:39.793Z,18.90
2023-01-18T02:40:13.705Z,13.70
2023-01-18T02:43:02.292Z,16.05
2023-01-18T02:45:56.956Z,13.48
2023-01-18T02:48:25.300Z,18.65
2023-01-18T02:50:54.540Z,21.85
2023-01-18T02:53:21.209Z,16.33
2023-01-18T02:56:03.048Z,13.48
2023-01-18T02:58:45.816Z,14.40
2023-01-18T03:01:22.223Z,16.08
2023-01-18T03:03:51.915Z,12.57
2023-01-18T03:06:20.967Z,17.15
2023-01-18T03:08:49.839Z,15.70
2023-01-18T03:11:44.045Z,15.63
2023-01-18T03:14:32.676Z,15.85
2023-01-18T03:17:18.262Z,13.48
2023-01-18T03:20:07.092Z,9.82
2023-01-18T03:22:57.040Z,15.93
2023-01-18T03:25:36.010Z,13.73
2023-01-18T03:28:26.192Z,7.78
2023-01-18T03:31:16.603Z,11.13
2023-01-18T03:33:49.172Z,8.52
2023-01-18T03:36:30.660Z,8.25
2023-01-18T03:39:02.601Z,5.53
2023-01-18T03:41:35.257Z,9.43
2023-01-18T03:44:17.550Z,8.50
2023-01-18T03:46:44.444Z,7.68
2023-01-18T03:49:12.248Z,13.60
2023-01-18T03:52:08.804Z,11.23
2023-01-18T03:55:04.959Z,10.57
2023-01-18T03:57:34.551Z,12.02
2023-01-18T04:00:02.680Z,13.43
2023-01-18T04:02:29.372Z,8.90
2023-01-18T04:05:03.515Z,9.68
2023-01-18T04:07:31.729Z,12.15
2023-01-18T04:09:59.347Z,10.13
2023-01-18T04:12:26.603Z,10.32
2023-01-18T04:14:55.597Z,9.82
2023-01-18T04:17:24.481Z,9.88
2023-01-18T04:19:53.716Z,11.70
2023-01-18T04:22:20.388Z,8.07
2023-01-18T04:24:49.497Z,9.32
2023-01-18T04:27:16.109Z,8.73
2023-01-18T04:29:45.208Z,10.05
2023-01-18T04:32:11.839Z,12.43
2023-01-18T04:34:38.486Z,10.18
2023-01-18T04:37:07.374Z,9.02
2023-01-18T04:39:34.063Z,9.80
2023-01-18T04:42:00.781Z,8.98
2023-01-18T04:44:27.510Z,10.65
2023-01-18T04:46:54.159Z,11.65
2023-01-18T04:49:20.769Z,7.60
2023-01-18T04:51:49.829Z,5.78
2023-01-18T04:54:18.040Z,6.95
2023-01-18T04:56:44.720Z,5.35
2023-01-18T04:59:20.321Z,8.32
2023-01-18T05:01:47.064Z,9.13
2023-01-18T05:04:14.620Z,7.70
2023-01-18T05:06:41.272Z,7.80
2023-01-18T05:09:11.169Z,4.60
2023-01-18T05:11:37.785Z,9.88
2023-01-18T05:14:04.440Z,8.32
2023-01-18T05:16:31.200Z,6.07
2023-01-18T05:18:57.811Z,6.38
2023-01-18T05:21:24.605Z,9.48
2023-01-18T05:23:51.319Z,8.02
2023-01-18T05:26:21.047Z,7.63
2023-01-18T05:28:48.672Z,5.72
2023-01-18T05:31:18.141Z,9.43
2023-01-18T05:33:45.323Z,5.50
2023-01-18T05:36:12.004Z,5.30
2023-01-18T05:38:38.616Z,8.38
2023-01-18T05:41:07.966Z,8.63
2023-01-18T05:43:35.867Z,10.43
2023-01-18T05:46:02.639Z,13.88
2023-01-18T05:48:30.015Z,11.38
2023-01-18T05:50:56.625Z,8.82
2023-01-18T05:53:23.956Z,10.77
2023-01-18T05:55:58.701Z,10.55
2023-01-18T05:58:26.264Z,8.75
2023-01-18T06:00:53.545Z,9.45
2023-01-18T06:03:20.743Z,7.82
2023-01-18T06:05:48.584Z,7.18
2023-01-18T06:08:15.732Z,9.43
2023-01-18T06:10:42.791Z,9.10
2023-01-18T06:13:11.945Z,6.75
2023-01-18T06:15:38.982Z,11.02
2023-01-18T06:18:08.185Z,7.45
2023-01-18T06:20:34.879Z,8.23
2023-01-18T06:23:01.768Z,7.15
2023-01-18T06:25:28.620Z,8.52
2023-01-18T06:27:55.294Z,9.93
2023-01-18T06:30:22.190Z,9.20
2023-01-18T06:32:49.759Z,10.15
2023-01-18T06:35:18.730Z,9.05
2023-01-18T06:37:46.413Z,11.30
2023-01-18T06:40:13.786Z,7.00
2023-01-18T06:42:42.788Z,9.30
2023-01-18T06:45:09.935Z,11.23
2023-01-18T06:47:36.675Z,11.70
2023-01-18T06:50:03.526Z,8.73
2023-01-18T06:52:30.246Z,7.00
2023-01-18T06:55:00.029Z,7.38
2023-01-18T06:57:26.817Z,12.45
2023-01-18T06:59:53.569Z,6.63
2023-01-18T07:02:21.012Z,8.35
2023-01-18T07:04:47.867Z,9.15
2023-01-18T07:07:16.976Z,13.00
2023-01-18T07:09:43.750Z,8.60
2023-01-18T07:12:10.394Z,6.75
2023-01-18T07:14:39.737Z,7.30
2023-01-18T07:17:06.489Z,10.32
2023-01-18T07:19:33.280Z,9.13
2023-01-18T07:22:00.575Z,7.47
2023-01-18T07:24:29.979Z,9.35
2023-01-18T07:26:59.518Z,8.43
2023-01-18T07:29:28.932Z,9.93
2023-01-18T07:31:56.153Z,7.60
2023-01-18T07:34:22.813Z,10.05
2023-01-18T07:36:51.601Z,9.05
2023-01-18T07:39:22.641Z,8.98
2023-01-18T07:41:49.298Z,6.45
2023-01-18T07:44:18.702Z,8.73
2023-01-18T07:46:45.762Z,7.45
2023-01-18T07:49:12.522Z,7.78
2023-01-18T07:51:39.246Z,11.90
2023-01-18T07:54:05.964Z,10.02
2023-01-18T07:56:32.627Z,11.13
2023-01-18T07:59:01.543Z,7.38
2023-01-18T08:01:30.547Z,9.18
2023-01-18T08:03:57.313Z,8.35
2023-01-18T08:06:25.898Z,9.75
2023-01-18T08:08:54.585Z,9.50
2023-01-18T08:11:21.287Z,7.75
2023-01-18T08:13:49.329Z,8.38
2023-01-18T08:16:16.531Z,8.80
2023-01-18T08:18:45.181Z,7.65
2023-01-18T08:21:13.130Z,6.90
2023-01-18T08:23:40.449Z,7.60
2023-01-18T08:26:10.744Z,8.88
2023-01-18T08:28:37.626Z,9.30
2023-01-18T08:31:08.115Z,9.35
2023-01-18T08:33:48.594Z,9.10
2023-01-18T08:36:17.898Z,7.93
2023-01-18T08:38:54.894Z,8.10
2023-01-18T08:41:22.646Z,9.63
2023-01-18T08:43:50.844Z,12.00
2023-01-18T08:46:20.478Z,10.80
2023-01-18T08:48:51.609Z,11.68
2023-01-18T08:51:18.703Z,7.88
2023-01-18T08:53:49.569Z,9.43
2023-01-18T08:56:16.301Z,9.75
2023-01-18T08:58:45.494Z,9.85
2023-01-18T09:01:12.228Z,8.73
2023-01-18T09:03:39.056Z,7.07
2023-01-18T09:06:11.680Z,6.93
2023-01-18T09:11:10.220Z,5.78
2023-01-18T09:13:58.443Z,9.48
2023-01-18T09:16:26.254Z,8.23
2023-01-18T09:18:55.302Z,9.35
2023-01-18T09:21:22.257Z,4.88
2023-01-18T09:23:51.433Z,4.35
2023-01-18T09:26:20.643Z,5.75
2023-01-18T09:28:53.629Z,7.25
2023-01-18T09:31:22.544Z,7.18
2023-01-18T09:33:53.635Z,10.10
2023-01-18T09:36:23.783Z,4.13
2023-01-18T09:38:52.618Z,8.52
2023-01-18T09:41:39.355Z,5.68
2023-01-18T09:44:32.612Z,5.93
2023-01-18T09:47:07.960Z,4.80
2023-01-18T09:49:46.387Z,7.10
2023-01-18T09:52:25.744Z,7.60
2023-01-18T09:55:15.251Z,4.97
2023-01-18T09:58:00.728Z,6.55
2023-01-18T10:00:30.616Z,4.47
2023-01-18T10:03:08.114Z,5.43
2023-01-18T10:06:10.031Z,5.28
2023-01-18T10:08:45.782Z,5.90
2023-01-18T10:11:32.815Z,8.65
2023-01-18T10:14:15.181Z,4.03
2023-01-18T10:16:41.920Z,6.50
2023-01-18T10:19:22.100Z,7.22
2023-01-18T10:22:03.229Z,4.57
2023-01-18T10:24:33.641Z,6.72
2023-01-18T10:27:36.928Z,5.75
2023-01-18T10:30:18.957Z,5.13
2023-01-18T10:32:55.118Z,7.53
2023-01-18T10:35:36.536Z,3.28
2023-01-18T10:38:16.799Z,7.07
2023-01-18T10:40:50.103Z,5.28
2023-01-18T10:43:20.533Z,4.00
2023-01-18T10:45:47.262Z,4.45
2023-01-18T10:48:25.961Z,5.05
2023-01-18T10:50:55.724Z,3.72
2023-01-18T10:53:36.445Z,4.97
2023-01-18T10:56:22.006Z,3.90
2023-01-18T10:58:51.576Z,3.45
2023-01-18T11:01:28.401Z,5.40
2023-01-18T11:04:20.994Z,9.55
2023-01-18T11:07:02.772Z,3.47
2023-01-18T11:09:52.059Z,6.13
2023-01-18T11:12:37.362Z,4.40
2023-01-18T11:15:16.200Z,7.55
2023-01-18T11:17:55.859Z,3.53
2023-01-18T11:20:29.769Z,3.95
2023-01-18T11:25:40.058Z,5.18
2023-01-18T11:28:24.315Z,2.97
2023-01-18T11:30:57.583Z,7.40
2023-01-18T11:33:28.342Z,5.90
2023-01-18T11:35:59.170Z,4.65
2023-01-18T11:38:35.363Z,2.72
2023-01-18T11:41:12.278Z,2.03
2023-01-18T11:43:41.434Z,2.67
2023-01-18T11:46:29.217Z,4.65
2023-01-18T11:49:23.922Z,2.85
2023-01-18T11:52:00.036Z,5.47
2023-01-18T11:54:55.836Z,4.60
2023-01-18T11:57:25.118Z,7.10
2023-01-18T11:59:56.761Z,6.25
2023-01-18T12:02:43.947Z,5.70
2023-01-18T12:05:27.101Z,6.10
2023-01-18T12:08:24.305Z,4.07
2023-01-18T12:11:09.125Z,7.38
2023-01-18T12:13:47.676Z,4.15
2023-01-18T12:16:32.428Z,5.90
2023-01-18T12:19:36.576Z,5.68
2023-01-18T12:23:11.797Z,5.00
2023-01-18T12:26:06.755Z,4.53
2023-01-18T12:28:54.139Z,4.28
2023-01-18T12:31:44.898Z,4.30
2023-01-18T12:34:22.272Z,6.88
2023-01-18T12:37:27.114Z,4.38
2023-01-18T12:42:52.331Z,3.55
2023-01-18T12:45:25.104Z,4.72
2023-01-18T12:48:24.708Z,5.28
2023-01-18T12:50:56.564Z,7.32
2023-01-18T12:53:32.359Z,7.75
2023-01-18T12:56:06.427Z,4.20
2023-01-18T12:58:35.573Z,9.48
2023-01-18T13:01:12.226Z,5.68
2023-01-18T13:03:43.285Z,7.03
2023-01-18T13:06:11.490Z,7.95
2023-01-18T13:08:47.418Z,7.38
2023-01-18T13:11:19.716Z,8.25
2023-01-18T13:13:56.811Z,4.85
2023-01-18T13:16:56.536Z,6.25
2023-01-18T13:19:29.268Z,5.88
2023-01-18T13:22:06.110Z,6.25
2023-01-18T13:24:56.181Z,5.20
2023-01-18T13:27:25.574Z,4.38
2023-01-18T13:29:52.345Z,7.40
2023-01-18T13:32:22.079Z,8.25
2023-01-18T13:35:17.909Z,8.80
2023-01-18T13:37:55.974Z,6.07
2023-01-18T13:40:34.523Z,6.95
2023-01-18T13:43:05.852Z,7.25
2023-01-18T13:45:32.880Z,3.80
2023-01-18T13:48:24.550Z,3.63
2023-01-18T13:50:52.865Z,5.32
2023-01-18T13:53:24.290Z,4.22
2023-01-18T13:56:03.871Z,6.10
2023-01-18T13:58:38.691Z,5.38
2023-01-18T14:01:07.967Z,6.93
2023-01-18T14:03:38.781Z,7.38
2023-01-18T14:06:10.005Z,7.10
2023-01-18T14:08:41.081Z,7.07
2023-01-18T14:11:10.425Z,8.70
2023-01-18T14:13:46.105Z,14.48
2023-01-18T14:16:23.604Z,4.63
2023-01-18T14:18:55.573Z,7.00
2023-01-18T14:21:43.624Z,4.93
2023-01-18T14:24:37.781Z,7.00
2023-01-18T14:27:06.314Z,6.93
2023-01-18T14:29:38.852Z,7.22
2023-01-18T14:32:10.594Z,7.18
2023-01-18T14:34:41.938Z,6.28
2023-01-18T14:37:39.110Z,5.88
2023-01-18T14:40:24.327Z,6.38
2023-01-18T14:43:01.029Z,5.93
2023-01-18T14:45:29.984Z,8.40
2023-01-18T14:48:07.889Z,6.40
2023-01-18T14:50:40.927Z,7.95
2023-01-18T14:53:46.396Z,8.43
2023-01-18T14:56:24.387Z,8.73
2023-01-18T14:58:58.429Z,6.60
2023-01-18T15:01:38.482Z,7.95
2023-01-18T15:04:21.131Z,10.02
2023-01-18T15:07:19.061Z,7.03
2023-01-18T15:09:47.143Z,8.70
2023-01-18T15:12:19.764Z,5.65
2023-01-18T15:17:25.728Z,7.47
2023-01-18T15:20:00.400Z,10.93
2023-01-18T15:22:34.273Z,9.48
2023-01-18T15:27:33.493Z,12.73
2023-01-18T15:30:01.547Z,11.10
2023-01-18T15:32:32.118Z,9.63
2023-01-18T15:35:02.943Z,8.60
2023-01-18T15:37:33.184Z,6.82
2023-01-18T15:40:02.955Z,6.97
2023-01-18T15:42:53.771Z,14.45
2023-01-18T15:45:20.441Z,9.35
2023-01-18T15:48:14.584Z,11.70
2023-01-18T15:50:54.141Z,5.95
2023-01-18T15:53:35.982Z,8.90
2023-01-18T15:56:22.511Z,12.35
2023-01-18T15:58:55.921Z,11.52
2023-01-18T16:01:34.063Z,8.98
2023-01-18T16:04:04.531Z,12.35
2023-01-18T16:06:37.356Z,7.53
2023-01-18T16:09:20.671Z,10.73
2023-01-18T16:11:52.653Z,7.57
2023-01-18T16:14:22.176Z,12.60
2023-01-18T16:16:52.714Z,10.85
2023-01-18T16:19:23.415Z,13.45
2023-01-18T16:21:54.415Z,9.18
2023-01-18T16:24:29.201Z,9.50
2023-01-18T16:26:58.172Z,9.48
2023-01-18T16:29:25.070Z,14.27
2023-01-18T16:32:17.525Z,15.70
2023-01-18T16:34:44.181Z,13.57
2023-01-18T16:37:10.837Z,10.45
2023-01-18T16:39:41.299Z,13.90
2023-01-18T16:42:11.570Z,11.98
2023-01-18T16:44:40.474Z,9.25
2023-01-18T16:47:15.503Z,12.60
2023-01-18T16:49:44.075Z,14.07
2023-01-18T16:52:14.640Z,11.10
2023-01-18T16:54:45.795Z,7.28
2023-01-18T16:57:23.765Z,6.53
2023-01-18T16:59:51.793Z,10.55
2023-01-18T17:02:18.629Z,9.38
2023-01-18T17:04:46.494Z,11.20
2023-01-18T17:07:13.846Z,12.13
2023-01-18T17:09:48.762Z,13.65
2023-01-18T17:12:18.114Z,14.05
2023-01-18T17:14:44.760Z,14.00
2023-01-18T17:17:11.492Z,12.00
2023-01-18T17:19:42.667Z,14.85
2023-01-18T17:22:09.287Z,12.68
2023-01-18T17:24:36.791Z,14.15
2023-01-18T17:27:03.452Z,13.50
2023-01-18T17:29:30.139Z,13.38
2023-01-18T17:31:56.837Z,17.30
2023-01-18T17:34:28.603Z,14.85
2023-01-18T17:36:59.031Z,20.35
2023-01-18T17:39:42.539Z,17.80
2023-01-18T17:42:19.294Z,21.63
2023-01-18T17:45:02.291Z,11.85
2023-01-18T17:47:30.439Z,13.80
2023-01-18T17:49:59.866Z,17.98
2023-01-18T17:52:27.441Z,20.20
2023-01-18T17:54:56.369Z,14.52
2023-01-18T17:57:25.284Z,19.85
2023-01-18T17:59:55.401Z,15.70
2023-01-18T18:02:23.716Z,16.20
2023-01-18T18:04:50.927Z,20.05
2023-01-18T18:07:17.570Z,26.98
2023-01-18T18:09:46.439Z,20.73
2023-01-18T18:12:13.129Z,25.20
2023-01-18T18:14:40.251Z,18.65
2023-01-18T18:17:07.590Z,20.05
2023-01-18T18:19:34.554Z,25.42
2023-01-18T18:22:01.495Z,24.08
2023-01-18T18:24:28.202Z,23.35
2023-01-18T18:26:54.867Z,28.20
2023-01-18T18:29:21.479Z,22.67
2023-01-18T18:31:50.515Z,21.13
2023-01-18T18:34:17.317Z,28.98
2023-01-18T18:36:44.080Z,28.33
2023-01-18T18:39:10.747Z,30.27
2023-01-18T18:41:37.434Z,27.25
2023-01-18T18:44:04.170Z,21.92
2023-01-18T18:46:30.932Z,21.45
2023-01-18T18:48:57.651Z,24.80
2023-01-18T18:51:25.504Z,29.73
2023-01-18T18:53:54.897Z,20.02
2023-01-18T18:56:21.765Z,17.98
2023-01-18T18:58:51.439Z,18.20
2023-01-18T19:01:27.171Z,12.98
2023-01-18T19:03:54.119Z,14.18
2023-01-18T19:06:22.199Z,10.50
2023-01-18T19:08:49.708Z,9.52
2023-01-18T19:11:17.255Z,11.25
2023-01-18T19:13:44.925Z,14.13
2023-01-18T19:16:12.271Z,22.45
2023-01-18T19:18:39.052Z,15.15
2023-01-18T19:21:08.682Z,11.10
2023-01-18T19:23:37.890Z,16.13
2023-01-18T19:26:04.631Z,17.83
2023-01-18T19:28:31.361Z,15.13
2023-01-18T19:31:08.127Z,12.98
2023-01-18T19:33:35.001Z,16.20
2023-01-18T19:36:15.568Z,17.23
2023-01-18T19:38:46.032Z,15.98
2023-01-18T19:41:14.745Z,16.73
2023-01-18T19:43:42.721Z,13.65
2023-01-18T19:46:11.653Z,13.20
2023-01-18T19:48:39.219Z,15.27
2023-01-18T19:51:21.159Z,16.20
2023-01-18T19:53:48.855Z,21.67
2023-01-18T19:56:15.557Z,15.43
2023-01-18T19:58:42.204Z,15.05
2023-01-18T20:01:20.499Z,11.70
2023-01-18T20:03:57.193Z,19.80
2023-01-18T20:06:24.082Z,15.48
2023-01-18T20:08:54.042Z,11.50
2023-01-18T20:11:20.707Z,11.50
2023-01-18T20:13:50.012Z,9.38
2023-01-18T20:16:20.268Z,9.93
2023-01-18T20:18:48.758Z,9.85
2023-01-18T20:21:17.275Z,9.68
2023-01-18T20:24:00.567Z,11.32
2023-01-18T20:26:36.682Z,13.98
2023-01-18T20:29:08.407Z,13.90
2023-01-18T20:31:39.322Z,13.18
2023-01-18T20:34:07.236Z,13.98
2023-01-18T20:36:37.482Z,14.55
2023-01-18T20:39:06.575Z,15.77
2023-01-18T20:41:33.279Z,12.85
2023-01-18T20:44:00.026Z,11.00
2023-01-18T20:46:31.508Z,14.15
2023-01-18T20:48:58.787Z,12.90
2023-01-18T20:51:25.510Z,14.15
2023-01-18T20:53:54.609Z,13.13
2023-01-18T20:56:29.294Z,17.90
2023-01-18T20:58:57.059Z,15.73
2023-01-18T21:01:31.513Z,14.93
2023-01-18T21:04:05.186Z,20.05
2023-01-18T21:06:32.221Z,16.10
2023-01-18T21:09:02.395Z,17.85
2023-01-18T21:11:29.130Z,22.23
2023-01-18T21:13:58.903Z,15.82
2023-01-18T21:16:28.314Z,19.17
2023-01-18T21:18:56.223Z,20.83
2023-01-18T21:21:23.765Z,15.82
2023-01-18T21:23:50.502Z,18.02
2023-01-18T21:26:17.141Z,18.77
2023-01-18T21:28:43.817Z,17.90
2023-01-18T21:31:11.433Z,15.40
2023-01-18T21:33:38.212Z,23.08
2023-01-18T21:36:07.673Z,24.88
2023-01-18T21:38:36.647Z,21.90
2023-01-18T21:41:22.981Z,17.23
2023-01-18T21:44:11.369Z,24.63
2023-01-18T21:46:40.662Z,22.70
2023-01-18T21:49:07.383Z,13.05
2023-01-18T21:51:53.063Z,15.75
2023-01-18T21:54:22.128Z,15.93
2023-01-18T21:56:48.933Z,20.60
2023-01-18T21:59:15.622Z,15.80
2023-01-18T22:01:44.622Z,16.17
2023-01-18T22:04:34.348Z,15.88
2023-01-18T22:07:01.313Z,13.82
2023-01-18T22:09:31.034Z,19.17
2023-01-18T22:12:00.410Z,19.38
2023-01-18T22:14:31.814Z,21.30
2023-01-18T22:16:58.601Z,17.83
2023-01-18T22:19:25.288Z,26.30
2023-01-18T22:21:51.909Z,17.38
2023-01-18T22:24:19.011Z,26.73
2023-01-18T22:26:46.427Z,24.85
2023-01-18T22:29:13.733Z,25.60
2023-01-18T22:31:40.532Z,27.02
2023-01-18T22:34:07.610Z,22.92
2023-01-18T22:36:34.625Z,22.15
2023-01-18T22:39:01.342Z,26.38
2023-01-18T22:41:28.881Z,22.33
2023-01-18T22:43:56.241Z,26.13
2023-01-18T22:46:23.931Z,24.90
2023-01-18T22:48:50.732Z,20.85
2023-01-18T22:51:20.555Z,25.73
2023-01-18T22:53:49.971Z,30.75
2023-01-18T22:56:19.689Z,27.85
2023-01-18T22:58:47.343Z,34.55
2023-01-18T23:01:20.218Z,27.35
2023-01-18T23:03:47.757Z,26.58
2023-01-18T23:06:14.640Z,31.83
2023-01-18T23:08:45.807Z,31.35
2023-01-18T23:11:18.498Z,33.75
2023-01-18T23:14:08.030Z,33.08
2023-01-18T23:16:53.470Z,31.25
2023-01-18T23:19:23.969Z,31.38
2023-01-18T23:21:51.328Z,34.05
2023-01-18T23:24:20.786Z,34.30
2023-01-18T23:26:48.126Z,30.33
2023-01-18T23:29:15.500Z,30.83
2023-01-18T23:31:42.526Z,34.75
2023-01-18T23:34:09.995Z,33.00
2023-01-18T23:36:36.686Z,29.48
2023-01-18T23:39:22.208Z,36.30
2023-01-18T23:42:10.159Z,31.63
2023-01-18T23:44:55.793Z,35.28
2023-01-18T23:47:41.202Z,31.67
2023-01-18T23:50:27.619Z,26.88
2023-01-18T23:53:13.201Z,30.23
2023-01-18T23:55:41.316Z,29.38
2023-01-18T23:58:07.951Z,27.48
